Time;durP1;ratioP1;P1;durP2;ratioP2;P2;SDS_P1;SDS_P2;PMS_P1;PMS_P2;Temp;Humidity;BMP_temperature;BMP_pressure;BME280_temperature;BME280_humidity;BME280_pressure;Samples;Min_cycle;Max_cycle;Signal;HPM_P1;HPM_P2
2022/12/04 00:01:35;;;;;;;;;;;;;;;20.54;25.97;99149.56;5056820;28;990;-77
2022/12/04 00:04:01;;;;;;;;;;;;;;;20.60;25.97;99147.13;5057889;28;924;-76
2022/12/04 00:06:26;;;;;;;;;;;;;;;20.81;25.87;99146.22;5057852;28;1107;-76
2022/12/04 00:08:52;;;;;;;;;;;;;;;20.37;26.15;99143.97;5039745;28;948;-76
2022/12/04 00:11:18;;;;;;;;;;;;;;;20.02;26.66;99145.66;5057312;28;1092;-76
2022/12/04 00:13:44;;;;;;;;;;;;;;;19.90;26.88;99146.06;5057293;28;898;-76
2022/12/04 00:16:11;;;;;;;;;;;;;;;20.75;25.92;99143.00;5057322;28;1002;-76
2022/12/04 00:18:36;;;;;;;;;;;;;;;20.86;25.47;99147.81;5057469;28;843;-76
2022/12/04 00:21:05;;;;;;;;;;;;;;;20.87;25.52;99155.06;5039685;28;1977;-76
2022/12/04 00:23:31;;;;;;;;;;;;;;;20.19;26.51;99149.66;5057270;28;1118;-76
2022/12/04 00:26:03;;;;;;;;;;;;;;;20.26;26.42;99149.63;5039506;28;942;-77
2022/12/04 00:28:28;;;;;;;;;;;;;;;20.49;26.18;99152.00;5057204;28;865;-76
2022/12/04 00:30:54;;;;;;;;;;;;;;;20.65;26.00;99149.50;5057385;28;923;-76
2022/12/04 00:33:20;;;;;;;;;;;;;;;20.54;26.11;99143.09;5057005;28;1041;-76
2022/12/04 00:35:45;;;;;;;;;;;;;;;20.61;25.80;99143.06;5039381;28;941;-76
2022/12/04 00:38:11;;;;;;;;;;;;;;;20.48;25.86;99139.09;5056828;28;1163;-77
2022/12/04 00:40:36;;;;;;;;;;;;;;;20.46;26.12;99141.47;5057009;28;1982;-76
2022/12/04 00:43:02;;;;;;;;;;;;;;;20.89;25.53;99147.78;5056910;28;1055;-76
2022/12/04 00:45:27;;;;;;;;;;;;;;;21.37;24.93;99155.59;5039483;28;895;-76
2022/12/04 00:47:53;;;;;;;;;;;;;;;20.75;25.42;99148.66;5056944;28;857;-76
2022/12/04 00:50:18;;;;;;;;;;;;;;;20.45;25.78;99151.19;5039093;28;888;-76
2022/12/04 00:52:44;;;;;;;;;;;;;;;20.14;26.29;99153.69;5057046;28;999;-76
2022/12/04 00:55:09;;;;;;;;;;;;;;;20.41;25.88;99161.69;5056851;28;866;-76
2022/12/04 00:57:35;;;;;;;;;;;;;;;20.77;25.35;99153.91;5056676;28;910;-76
2022/12/04 01:00:00;;;;;;;;;;;;;;;20.57;25.71;99158.44;5021177;28;1992;-76
2022/12/04 01:02:25;;;;;;;;;;;;;;;20.79;25.37;99154.31;5056677;28;1000;-76
2022/12/04 01:04:51;;;;;;;;;;;;;;;20.89;25.29;99158.31;5056469;28;883;-76
2022/12/04 01:07:16;;;;;;;;;;;;;;;20.50;25.78;99154.41;5056576;28;920;-76
2022/12/04 01:09:42;;;;;;;;;;;;;;;20.43;25.88;99153.63;5056556;28;902;-76
2022/12/04 01:12:07;;;;;;;;;;;;;;;20.39;26.12;99150.81;5056407;28;938;-76
2022/12/04 01:14:33;;;;;;;;;;;;;;;20.42;26.24;99152.03;5055919;28;1017;-76
2022/12/04 01:16:58;;;;;;;;;;;;;;;20.71;25.50;99150.69;5056020;28;877;-76
2022/12/04 01:19:24;;;;;;;;;;;;;;;20.75;25.48;99148.66;5056550;28;1906;-77
2022/12/04 01:21:49;;;;;;;;;;;;;;;20.45;25.71;99145.53;5021221;28;984;-76
2022/12/04 01:24:14;;;;;;;;;;;;;;;20.02;26.59;99156.97;5038417;28;911;-76
2022/12/04 01:26:40;;;;;;;;;;;;;;;19.90;26.83;99160.19;5056096;28;994;-76
2022/12/04 01:29:05;;;;;;;;;;;;;;;20.40;25.93;99149.59;5056391;28;939;-76
2022/12/04 01:31:31;;;;;;;;;;;;;;;20.30;26.04;99151.22;5020536;28;1090;-76
2022/12/04 01:33:56;;;;;;;;;;;;;;;20.54;26.02;99143.09;5056019;28;982;-76
2022/12/04 01:36:23;;;;;;;;;;;;;;;20.40;25.80;99140.28;5055718;28;1179;-76
2022/12/04 01:38:48;;;;;;;;;;;;;;;20.41;25.97;99150.38;5056313;28;1027;-76
2022/12/04 01:41:14;;;;;;;;;;;;;;;20.34;26.17;99144.75;5056118;28;1918;-76
2022/12/04 01:43:40;;;;;;;;;;;;;;;20.43;26.02;99153.63;5038435;28;917;-77
2022/12/04 01:46:05;;;;;;;;;;;;;;;20.47;25.98;99148.81;5038106;28;903;-76
2022/12/04 01:48:49;;;;;;;;;;;;;;;20.57;25.84;99147.13;5055602;28;900;-76
2022/12/04 01:51:17;;;;;;;;;;;;;;;20.59;25.89;99147.53;5056155;28;1032;-77
2022/12/04 01:53:45;;;;;;;;;;;;;;;20.60;26.00;99141.47;5038067;28;913;-76
2022/12/04 01:56:10;;;;;;;;;;;;;;;20.24;26.43;99150.03;5038184;28;988;-76
2022/12/04 01:58:39;;;;;;;;;;;;;;;20.38;25.99;99139.91;5055292;28;905;-76
2022/12/04 02:01:04;;;;;;;;;;;;;;;20.46;26.14;99141.47;5004531;28;1950;-76
2022/12/04 02:03:30;;;;;;;;;;;;;;;20.71;25.57;99130.91;5037894;28;914;-76
2022/12/04 02:05:55;;;;;;;;;;;;;;;20.79;25.54;99143.78;5037832;28;949;-77
2022/12/04 02:08:21;;;;;;;;;;;;;;;20.84;25.62;99134.06;5055386;28;1043;-76
2022/12/04 02:10:50;;;;;;;;;;;;;;;20.32;25.98;99130.25;5037828;28;858;-76
2022/12/04 02:13:19;;;;;;;;;;;;;;;20.47;25.86;99132.63;5037729;28;860;-76
2022/12/04 02:15:47;;;;;;;;;;;;;;;20.55;26.03;99130.56;5037598;28;957;-76
2022/12/04 02:18:22;;;;;;;;;;;;;;;20.44;26.27;99133.41;5038130;28;1263;-76
2022/12/04 02:20:50;;;;;;;;;;;;;;;20.57;25.94;99136.63;5055185;28;1906;-77
2022/12/04 02:23:21;;;;;;;;;;;;;;;20.57;25.91;99135.81;5037436;28;940;-77
2022/12/04 02:26:05;;;;;;;;;;;;;;;20.22;26.20;99129.88;5041273;28;920;-76
2022/12/04 02:28:43;;;;;;;;;;;;;;;20.22;26.24;99127.03;5059406;28;968;-76
2022/12/04 02:31:11;;;;;;;;;;;;;;;20.50;26.03;99137.47;5059647;28;911;-77
2022/12/04 02:33:40;;;;;;;;;;;;;;;20.59;25.82;99133.41;5041392;28;990;-76
2022/12/04 02:36:18;;;;;;;;;;;;;;;20.67;25.63;99141.41;5041466;28;923;-76
2022/12/04 02:38:46;;;;;;;;;;;;;;;20.41;25.97;99147.56;5024987;28;967;-76
2022/12/04 02:41:13;;;;;;;;;;;;;;;20.20;26.32;99140.75;5041521;28;1997;-76
2022/12/04 02:43:46;;;;;;;;;;;;;;;19.96;26.61;99141.66;5041422;28;1037;-76
2022/12/04 02:46:20;;;;;;;;;;;;;;;20.28;26.27;99141.56;5041123;28;966;-76
2022/12/04 02:48:47;;;;;;;;;;;;;;;20.48;25.96;99144.75;5058917;28;855;-77
2022/12/04 02:51:13;;;;;;;;;;;;;;;20.60;25.88;99147.13;5041546;28;873;-77
2022/12/04 02:53:46;;;;;;;;;;;;;;;20.66;25.89;99145.47;5041153;28;958;-76
2022/12/04 02:56:13;;;;;;;;;;;;;;;20.45;25.95;99139.88;5024877;28;1010;-76
2022/12/04 02:58:49;;;;;;;;;;;;;;;20.08;26.43;99143.22;5041500;28;931;-76
2022/12/04 03:01:22;;;;;;;;;;;;;;;20.61;26.18;99137.41;5024859;28;1914;-76
2022/12/04 03:03:58;;;;;;;;;;;;;;;20.58;25.87;99138.25;4997146;28;985;-76
2022/12/04 03:06:23;;;;;;;;;;;;;;;20.56;26.17;99140.66;4996970;28;970;-76
2022/12/04 03:08:50;;;;;;;;;;;;;;;20.66;26.07;99139.00;4997096;28;1225;-77
2022/12/04 03:11:16;;;;;;;;;;;;;;;20.40;26.25;99137.47;4996784;28;934;-76
2022/12/04 03:13:48;;;;;;;;;;;;;;;20.26;26.37;99144.81;4980273;28;941;-77
2022/12/04 03:16:16;;;;;;;;;;;;;;;20.20;26.50;99140.75;4964451;28;1050;-76
2022/12/04 03:19:08;;;;;;;;;;;;;;;20.55;26.02;99150.38;4996956;28;946;-77
2022/12/04 03:21:37;;;;;;;;;;;;;;;20.57;26.09;99139.44;4994184;28;973;-76
2022/12/04 03:24:34;;;;;;;;;;;;;;;20.65;25.74;99140.22;4980424;28;938;-76
2022/12/04 03:27:05;;;;;;;;;;;;;;;20.21;26.31;99141.56;4938689;29;1190;-76
2022/12/04 03:29:51;;;;;;;;;;;;;;;19.73;26.96;99140.03;4922833;29;1018;-76
2022/12/04 03:32:19;;;;;;;;;;;;;;;20.25;26.42;99142.34;4937872;29;1239;-76
2022/12/04 03:34:47;;;;;;;;;;;;;;;20.37;26.21;99144.75;4932432;28;954;-76
2022/12/04 03:37:13;;;;;;;;;;;;;;;20.57;26.16;99136.63;4957703;29;1329;-76
2022/12/04 03:40:02;;;;;;;;;;;;;;;20.77;25.77;99139.75;4941566;29;1887;-76
2022/12/04 03:42:32;;;;;;;;;;;;;;;20.76;25.56;99138.94;4900263;29;949;-76
2022/12/04 03:45:08;;;;;;;;;;;;;;;20.84;25.40;99138.94;4900610;29;978;-77
2022/12/04 03:47:35;;;;;;;;;;;;;;;20.33;26.04;99137.50;4900316;29;968;-76
2022/12/04 03:50:21;;;;;;;;;;;;;;;20.20;26.35;99131.47;4865653;29;1306;-76
2022/12/04 03:52:52;;;;;;;;;;;;;;;20.24;26.27;99141.56;4897144;29;993;-76
2022/12/04 03:55:32;;;;;;;;;;;;;;;20.62;25.97;99138.22;4881761;29;1038;-77
2022/12/04 03:57:58;;;;;;;;;;;;;;;20.65;25.76;99143.06;4881821;29;1196;-76
2022/12/04 04:00:24;;;;;;;;;;;;;;;20.66;25.94;99142.63;4881161;29;1919;-76
2022/12/04 04:02:54;;;;;;;;;;;;;;;20.57;25.81;99147.13;4908459;29;989;-76
2022/12/04 04:05:20;;;;;;;;;;;;;;;20.46;26.07;99147.97;4899897;29;1006;-77
2022/12/04 04:07:46;;;;;;;;;;;;;;;20.05;26.51;99147.66;4900209;29;1009;-76
2022/12/04 04:10:15;;;;;;;;;;;;;;;20.48;26.12;99141.94;4884230;29;1026;-77
2022/12/04 04:24:13;;;;;;;;;;;;;;;20.45;26.15;99140.69;4900219;29;901;-76
2022/12/04 04:26:37;;;;;;;;;;;;;;;20.45;26.17;99156.84;5003386;28;955;-76
2022/12/04 04:29:02;;;;;;;;;;;;;;;20.59;25.83;99165.31;4995442;28;993;-76
2022/12/04 04:31:38;;;;;;;;;;;;;;;20.53;25.99;99159.28;4995640;28;896;-76
2022/12/04 04:34:22;;;;;;;;;;;;;;;20.47;25.99;99165.75;4995269;28;950;-76
2022/12/04 04:36:54;;;;;;;;;;;;;;;20.24;26.16;99181.13;4995069;28;1174;-76
2022/12/04 04:39:28;;;;;;;;;;;;;;;20.27;26.34;99180.31;4995391;28;1977;-76
2022/12/04 04:41:58;;;;;;;;;;;;;;;20.42;26.14;99185.94;4993291;28;1644;-77
2022/12/04 04:44:43;;;;;;;;;;;;;;;20.52;26.27;99183.13;4978378;28;1731;-76
2022/12/04 04:47:11;;;;;;;;;;;;;;;20.63;25.94;99185.09;4994667;28;983;-76
2022/12/04 04:49:36;;;;;;;;;;;;;;;20.39;26.35;99190.38;4994709;28;925;-76
2022/12/04 04:52:02;;;;;;;;;;;;;;;20.41;26.23;99187.13;4995181;28;1022;-77
2022/12/04 04:54:27;;;;;;;;;;;;;;;20.21;26.54;99193.25;4995087;28;1080;-76
2022/12/04 04:56:52;;;;;;;;;;;;;;;20.59;25.96;99190.75;4994880;28;1113;-76
2022/12/04 04:59:18;;;;;;;;;;;;;;;20.50;26.18;99190.38;5001063;28;2334;-76
2022/12/04 05:01:43;;;;;;;;;;;;;;;20.70;25.88;99185.84;5034370;28;919;-77
2022/12/04 05:04:09;;;;;;;;;;;;;;;20.60;26.11;99195.19;5034384;28;1020;-76
2022/12/04 05:06:34;;;;;;;;;;;;;;;20.28;26.49;99184.75;5034231;28;1002;-76
2022/12/04 05:09:00;;;;;;;;;;;;;;;20.37;26.35;99178.69;5034223;28;1106;-76
2022/12/04 05:11:25;;;;;;;;;;;;;;;19.98;26.98;99184.41;5034061;28;1082;-76
2022/12/04 05:13:51;;;;;;;;;;;;;;;20.29;26.55;99172.22;5035951;28;1602;-77
2022/12/04 05:16:17;;;;;;;;;;;;;;;20.42;26.42;99181.09;5053744;28;1002;-76
2022/12/04 05:19:52;;;;;;;;;;;;;;;20.64;25.94;99190.34;5037347;28;964;-77
2022/12/04 05:21:27;;;;;;;;;;;;;;;20.74;25.78;99192.31;5055614;28;1969;-76
2022/12/04 05:23:53;;;;;;;;;;;;;;;20.36;26.12;99187.56;5056142;28;956;-76
2022/12/04 05:26:18;;;;;;;;;;;;;;;19.99;26.76;99197.31;5055547;28;1502;-76
2022/12/04 05:28:44;;;;;;;;;;;;;;;20.28;26.45;99193.22;5055659;28;1559;-76
2022/12/04 05:31:09;;;;;;;;;;;;;;;20.43;26.28;99198.84;5037547;28;1726;-76
2022/12/04 05:33:35;;;;;;;;;;;;;;;20.46;26.23;99192.38;5056163;28;902;-76
2022/12/04 05:36:01;;;;;;;;;;;;;;;20.56;26.03;99191.56;5056183;28;1522;-76
2022/12/04 05:38:26;;;;;;;;;;;;;;;20.65;25.86;99189.09;5038447;28;1211;-76
2022/12/04 05:40:52;;;;;;;;;;;;;;;20.40;26.15;99210.97;5056108;28;1975;-76
2022/12/04 05:43:17;;;;;;;;;;;;;;;20.25;26.47;99201.72;5055810;28;925;-77
2022/12/04 05:45:42;;;;;;;;;;;;;;;20.54;26.20;99206.13;5055831;28;967;-76
2022/12/04 05:48:08;;;;;;;;;;;;;;;20.56;26.12;99197.22;5055626;28;886;-76
2022/12/04 05:50:33;;;;;;;;;;;;;;;20.72;25.93;99194.72;5055250;28;1575;-75
2022/12/04 05:52:59;;;;;;;;;;;;;;;20.83;25.58;99191.03;5055826;28;959;-77
2022/12/04 05:55:24;;;;;;;;;;;;;;;20.92;25.56;99203.53;5055906;28;922;-76
2022/12/04 05:57:50;;;;;;;;;;;;;;;20.52;26.07;99205.72;5055444;28;928;-76
2022/12/04 06:00:15;;;;;;;;;;;;;;;20.24;26.43;99203.72;5054519;28;1976;-77
2022/12/04 06:02:40;;;;;;;;;;;;;;;20.46;26.26;99198.03;5055882;28;941;-76
2022/12/04 06:05:06;;;;;;;;;;;;;;;20.44;26.55;99209.75;5003517;28;1432;-76
2022/12/04 06:07:31;;;;;;;;;;;;;;;20.58;26.09;99206.13;5055790;28;990;-76
2022/12/04 06:09:57;;;;;;;;;;;;;;;20.68;26.24;99213.75;5055858;28;794;-78
2022/12/04 06:12:22;;;;;;;;;;;;;;;20.41;26.20;99207.72;5037685;28;984;-76
2022/12/04 06:14:48;;;;;;;;;;;;;;;20.24;26.51;99215.03;5055281;28;1154;-76
2022/12/04 06:17:13;;;;;;;;;;;;;;;20.15;26.84;99214.63;5055722;28;938;-76
2022/12/04 06:19:39;;;;;;;;;;;;;;;20.52;26.33;99219.03;5054609;28;1981;-76
2022/12/04 06:22:04;;;;;;;;;;;;;;;20.44;26.31;99212.56;5055223;28;883;-76
2022/12/04 06:24:29;;;;;;;;;;;;;;;20.47;26.21;99222.31;5055883;28;861;-76
2022/12/04 06:26:58;;;;;;;;;;;;;;;20.67;26.16;99220.59;5019744;28;1037;-77
2022/12/04 06:29:23;;;;;;;;;;;;;;;20.62;26.03;99225.88;5055948;28;944;-76
2022/12/04 06:31:49;;;;;;;;;;;;;;;20.38;26.29;99228.34;5037662;28;861;-77
2022/12/04 06:34:14;;;;;;;;;;;;;;;20.15;26.89;99227.97;5054771;28;1580;-77
2022/12/04 06:36:40;;;;;;;;;;;;;;;20.06;27.38;99231.22;5053932;28;1574;-76
2022/12/04 06:39:05;;;;;;;;;;;;;;;20.34;26.54;99229.56;5055501;28;885;-76
2022/12/04 06:41:31;;;;;;;;;;;;;;;20.46;26.33;99226.28;5054881;28;1918;-76
2022/12/04 06:43:56;;;;;;;;;;;;;;;20.58;26.19;99231.56;5054312;28;1475;-76
2022/12/04 06:46:22;;;;;;;;;;;;;;;20.69;26.14;99229.50;5037835;28;967;-76
2022/12/04 06:48:48;;;;;;;;;;;;;;;20.36;26.36;99227.94;5055257;28;987;-76
2022/12/04 06:51:17;;;;;;;;;;;;;;;20.40;26.37;99222.28;5037145;28;885;-76
2022/12/04 06:53:43;;;;;;;;;;;;;;;20.48;26.50;99223.91;5019891;28;1076;-76
2022/12/04 06:56:10;;;;;;;;;;;;;;;20.45;26.57;99224.69;5036441;28;1567;-76
2022/12/04 06:58:35;;;;;;;;;;;;;;;20.55;26.10;99229.53;5003101;28;964;-76
2022/12/04 07:01:07;;;;;;;;;;;;;;;20.71;26.17;99218.56;5054927;28;1914;-76
2022/12/04 07:03:33;;;;;;;;;;;;;;;20.53;26.24;99221.47;5055070;28;936;-76
2022/12/04 07:05:58;;;;;;;;;;;;;;;20.18;26.66;99216.66;5054771;28;934;-77
2022/12/04 07:08:23;;;;;;;;;;;;;;;20.22;26.66;99219.50;5054758;28;1470;-76
2022/12/04 07:10:49;;;;;;;;;;;;;;;20.33;26.72;99228.75;5055893;28;1450;-76
2022/12/04 07:13:14;;;;;;;;;;;;;;;20.55;26.25;99229.53;5058720;28;926;-76
2022/12/04 07:15:40;;;;;;;;;;;;;;;20.70;26.34;99222.63;5058463;28;1010;-76
2022/12/04 07:18:05;;;;;;;;;;;;;;;20.68;26.19;99225.06;5040967;28;983;-76
2022/12/04 07:20:31;;;;;;;;;;;;;;;20.60;26.22;99231.94;5023421;28;1987;-77
2022/12/04 07:22:56;;;;;;;;;;;;;;;20.33;26.67;99223.09;5058484;28;954;-76
2022/12/04 07:25:22;;;;;;;;;;;;;;;19.95;27.12;99230.41;5057616;28;1477;-76
2022/12/04 07:27:47;;;;;;;;;;;;;;;20.00;27.08;99235.66;5006984;28;983;-76
2022/12/04 07:30:12;;;;;;;;;;;;;;;20.24;26.92;99240.47;5058584;28;836;-76
2022/12/04 07:32:38;;;;;;;;;;;;;;;20.46;26.84;99226.28;5006829;28;1140;-76
2022/12/04 07:35:04;;;;;;;;;;;;;;;20.61;26.57;99236.38;5040762;28;916;-76
2022/12/04 07:37:29;;;;;;;;;;;;;;;20.73;25.95;99238.78;5057067;28;1535;-76
2022/12/04 07:39:55;;;;;;;;;;;;;;;20.62;26.51;99235.16;5058112;28;1898;-76
2022/12/04 07:42:20;;;;;;;;;;;;;;;20.19;26.85;99243.72;5058037;28;907;-76
2022/12/04 07:44:46;;;;;;;;;;;;;;;19.86;27.52;99232.84;5058375;28;899;-76
2022/12/04 07:47:11;;;;;;;;;;;;;;;20.12;27.08;99235.25;5058037;28;961;-76
2022/12/04 07:49:37;;;;;;;;;;;;;;;20.48;26.54;99246.53;5057072;28;1439;-76
2022/12/04 07:52:02;;;;;;;;;;;;;;;20.63;26.38;99238.81;5057371;28;1688;-76
2022/12/04 07:54:28;;;;;;;;;;;;;;;20.47;26.39;99239.28;5057919;28;890;-76
2022/12/04 07:56:53;;;;;;;;;;;;;;;20.44;26.62;99245.69;5058115;28;858;-76
2022/12/04 07:59:19;;;;;;;;;;;;;;;20.57;26.53;99249.72;5057883;28;1906;-76
2022/12/04 08:01:44;;;;;;;;;;;;;;;20.50;26.53;99255.41;4995971;28;1025;-76
2022/12/04 08:04:09;;;;;;;;;;;;;;;20.02;27.05;99241.72;4995983;28;995;-76
2022/12/04 08:06:35;;;;;;;;;;;;;;;19.91;27.29;99246.56;4995550;28;1404;-76
2022/12/04 08:09:00;;;;;;;;;;;;;;;20.39;27.01;99249.75;4996389;28;976;-76
2022/12/04 08:11:26;;;;;;;;;;;;;;;20.45;26.68;99247.31;4995852;28;1077;-77
2022/12/04 08:13:55;;;;;;;;;;;;;;;20.46;26.61;99243.25;4996043;28;920;-76
2022/12/04 08:16:21;;;;;;;;;;;;;;;20.61;26.28;99249.72;4994170;28;1394;-76
2022/12/04 08:18:47;;;;;;;;;;;;;;;20.53;26.50;99232.78;4979509;28;1025;-76
2022/12/04 08:21:13;;;;;;;;;;;;;;;20.56;26.40;99239.63;4994822;28;1894;-75
2022/12/04 08:23:39;;;;;;;;;;;;;;;20.11;26.72;99199.75;4995657;28;958;-76
2022/12/04 08:26:05;;;;;;;;;;;;;;;19.88;27.70;99230.41;4995200;28;1653;-76
2022/12/04 08:28:30;;;;;;;;;;;;;;;20.12;27.30;99228.78;4979531;28;949;-77
2022/12/04 08:31:00;;;;;;;;;;;;;;;20.37;26.92;99234.41;4995462;28;1078;-76
2022/12/04 08:33:26;;;;;;;;;;;;;;;20.37;27.09;99240.06;5044313;28;1114;-76
2022/12/04 08:35:51;;;;;;;;;;;;;;;20.51;26.51;99231.56;5039212;28;1335;-76
2022/12/04 08:38:17;;;;;;;;;;;;;;;20.61;26.61;99238.41;5057065;28;1341;-76
2022/12/04 08:40:42;;;;;;;;;;;;;;;20.66;26.44;99229.50;5056175;28;1910;-77
2022/12/04 08:43:08;;;;;;;;;;;;;;;20.42;26.72;99237.63;5057240;28;914;-76
2022/12/04 08:45:33;;;;;;;;;;;;;;;19.88;27.53;99233.25;5056683;28;849;-77
2022/12/04 08:47:59;;;;;;;;;;;;;;;20.26;27.17;99223.09;5056718;28;939;-76
2022/12/04 08:50:24;;;;;;;;;;;;;;;20.36;26.99;99221.47;5056921;28;882;-76
2022/12/04 08:52:49;;;;;;;;;;;;;;;20.48;26.86;99223.91;5039049;28;953;-77
2022/12/04 08:55:15;;;;;;;;;;;;;;;20.63;26.55;99219.84;5056160;28;1440;-76
2022/12/04 08:57:40;;;;;;;;;;;;;;;20.63;26.46;99225.50;5056896;28;966;-76
2022/12/04 09:00:06;;;;;;;;;;;;;;;20.22;27.14;99216.69;5054522;28;1914;-76
2022/12/04 09:02:32;;;;;;;;;;;;;;;20.25;27.16;99216.66;5039018;28;926;-76
2022/12/04 09:04:57;;;;;;;;;;;;;;;20.24;27.23;99211.41;5056564;28;888;-76
2022/12/04 09:07:22;;;;;;;;;;;;;;;20.37;27.12;99220.28;5046455;28;1392;-76
2022/12/04 09:09:48;;;;;;;;;;;;;;;20.62;26.62;99212.53;5018761;28;943;-76
2022/12/04 09:12:13;;;;;;;;;;;;;;;20.52;26.78;99202.06;5036260;28;938;-76
2022/12/04 09:14:39;;;;;;;;;;;;;;;20.77;26.46;99197.13;5036147;28;910;-76
2022/12/04 09:17:05;;;;;;;;;;;;;;;20.37;26.81;99200.50;5018867;28;962;-76
2022/12/04 09:19:31;;;;;;;;;;;;;;;20.05;27.40;99201.34;5036407;28;1969;-76
2022/12/04 09:21:56;;;;;;;;;;;;;;;20.24;27.05;99198.09;5043997;28;1636;-76
2022/12/04 09:24:21;;;;;;;;;;;;;;;20.25;27.42;99199.69;5055964;28;882;-76
2022/12/04 09:26:47;;;;;;;;;;;;;;;20.55;27.04;99185.09;5056060;28;954;-76
2022/12/04 09:29:13;;;;;;;;;;;;;;;20.59;26.94;99185.09;5056642;28;858;-76
2022/12/04 09:31:38;;;;;;;;;;;;;;;20.64;26.68;99187.50;5056021;28;825;-76
2022/12/04 09:34:04;;;;;;;;;;;;;;;20.60;26.71;99186.69;5056110;28;947;-76
2022/12/04 09:36:29;;;;;;;;;;;;;;;20.57;26.75;99186.72;5003537;28;1401;-76
2022/12/04 09:38:54;;;;;;;;;;;;;;;20.13;27.71;99186.00;5055663;28;853;-76
2022/12/04 09:41:35;;;;;;;;;;;;;;;19.83;28.14;99177.16;5055694;28;1975;-76
2022/12/04 09:44:01;;;;;;;;;;;;;;;20.24;27.48;99172.66;5037718;28;997;-76
2022/12/04 09:46:41;;;;;;;;;;;;;;;20.45;27.42;99173.81;5055855;28;883;-77
2022/12/04 09:49:19;;;;;;;;;;;;;;;20.57;26.94;99173.38;5055692;28;936;-76
2022/12/04 09:51:44;;;;;;;;;;;;;;;20.75;26.93;99171.28;5054221;28;1471;-77
2022/12/04 09:54:12;;;;;;;;;;;;;;;20.61;27.06;99165.69;5038063;28;962;-75
2022/12/04 09:56:38;;;;;;;;;;;;;;;20.29;27.20;99166.56;5037708;28;846;-77
2022/12/04 09:59:10;;;;;;;;;;;;;;;19.89;27.86;99169.88;5038151;28;945;-76
2022/12/04 10:01:35;;;;;;;;;;;;;;;20.37;27.34;99166.56;5055292;28;1984;-76
2022/12/04 10:04:00;;;;;;;;;;;;;;;20.26;27.39;99158.94;5055516;28;962;-76
2022/12/04 10:06:27;;;;;;;;;;;;;;;20.46;27.39;99159.28;5054444;28;1647;-76
2022/12/04 10:08:58;;;;;;;;;;;;;;;20.65;27.12;99166.47;5055690;28;871;-76
2022/12/04 10:11:36;;;;;;;;;;;;;;;20.64;26.81;99153.56;5037659;28;966;-76
2022/12/04 10:14:02;;;;;;;;;;;;;;;20.58;26.88;99155.22;5055333;28;1159;-76
2022/12/04 10:16:39;;;;;;;;;;;;;;;20.12;27.82;99161.78;5054293;28;1513;-75
2022/12/04 10:19:08;;;;;;;;;;;;;;;19.87;28.11;99150.53;5055299;28;912;-76
2022/12/04 10:21:52;;;;;;;;;;;;;;;20.13;27.99;99163.41;5053850;28;1984;-76
2022/12/04 10:24:36;;;;;;;;;;;;;;;20.38;27.38;99156.88;5055350;28;903;-76
2022/12/04 10:27:04;;;;;;;;;;;;;;;20.49;27.37;99157.66;5055431;28;930;-76
2022/12/04 10:29:29;;;;;;;;;;;;;;;20.53;27.40;99158.47;5003763;28;1029;-76
2022/12/04 10:31:55;;;;;;;;;;;;;;;20.59;27.18;99144.72;5055221;28;843;-76
2022/12/04 10:34:25;;;;;;;;;;;;;;;20.70;26.84;99145.47;5037527;28;860;-76
2022/12/04 10:36:51;;;;;;;;;;;;;;;20.32;27.37;99152.88;4992246;28;1509;-76
2022/12/04 10:39:20;;;;;;;;;;;;;;;19.83;28.15;99143.25;4993732;28;960;-75
2022/12/04 10:42:05;;;;;;;;;;;;;;;19.86;28.59;99148.13;4993764;28;1973;-76
2022/12/04 10:44:31;;;;;;;;;;;;;;;20.41;27.62;99144.72;4993514;28;1145;-77
2022/12/04 10:47:00;;;;;;;;;;;;;;;20.37;27.70;99144.75;4997801;28;984;-77
2022/12/04 10:49:28;;;;;;;;;;;;;;;20.51;27.27;99132.59;4996556;28;1497;-76
2022/12/04 10:51:54;;;;;;;;;;;;;;;20.47;27.31;99132.63;4958385;28;989;-75
2022/12/04 10:54:25;;;;;;;;;;;;;;;20.70;26.95;99134.94;4958590;29;972;-76
2022/12/04 10:56:51;;;;;;;;;;;;;;;20.28;27.44;99125.41;4958375;29;1028;-76
2022/12/04 10:59:16;;;;;;;;;;;;;;;19.83;28.50;99131.97;4958537;28;947;-75
2022/12/04 11:01:41;;;;;;;;;;;;;;;19.96;28.18;99133.97;4958430;29;1915;-76
2022/12/04 11:04:27;;;;;;;;;;;;;;;20.30;27.64;99128.63;4942224;28;975;-76
2022/12/04 11:07:03;;;;;;;;;;;;;;;20.34;27.43;99133.47;4964280;28;1609;-76
2022/12/04 11:09:29;;;;;;;;;;;;;;;20.58;27.35;99128.97;5017920;28;870;-76
2022/12/04 11:12:03;;;;;;;;;;;;;;;20.64;27.29;99119.63;5019219;28;913;-76
2022/12/04 11:14:29;;;;;;;;;;;;;;;20.62;27.08;99110.75;5018681;28;855;-76
2022/12/04 11:17:01;;;;;;;;;;;;;;;20.59;27.32;99116.44;5018714;28;1102;-76
2022/12/04 11:19:27;;;;;;;;;;;;;;;20.04;28.19;99103.66;5020914;28;1914;-76
2022/12/04 11:21:58;;;;;;;;;;;;;;;19.84;28.30;99122.28;4987725;28;1031;-76
2022/12/04 11:24:25;;;;;;;;;;;;;;;20.19;27.96;99116.53;5034832;28;1552;-76
2022/12/04 11:26:51;;;;;;;;;;;;;;;20.36;27.69;99108.41;5040369;28;940;-76
2022/12/04 11:29:16;;;;;;;;;;;;;;;20.53;27.34;99107.56;5016020;28;988;-76
2022/12/04 11:31:46;;;;;;;;;;;;;;;20.55;27.32;99116.44;5015882;28;973;-75
2022/12/04 11:34:19;;;;;;;;;;;;;;;20.34;27.50;99110.84;5000085;28;927;-76
2022/12/04 11:36:46;;;;;;;;;;;;;;;19.95;28.43;99106.09;5000222;28;1209;-76
2022/12/04 11:39:11;;;;;;;;;;;;;;;20.45;27.67;99105.94;4997087;28;1460;-76
2022/12/04 11:41:37;;;;;;;;;;;;;;;20.44;27.91;99110.00;5014670;28;1914;-76
2022/12/04 11:44:04;;;;;;;;;;;;;;;20.65;27.32;99109.94;5016078;28;927;-75
2022/12/04 11:46:30;;;;;;;;;;;;;;;20.61;27.20;99103.47;4999592;28;1116;-76
2022/12/04 11:48:56;;;;;;;;;;;;;;;20.86;27.15;99100.50;5015975;28;977;-76
2022/12/04 11:51:27;;;;;;;;;;;;;;;20.52;27.56;99100.28;5015304;28;1469;-77
2022/12/04 11:53:55;;;;;;;;;;;;;;;20.25;28.11;99109.25;5015497;28;1004;-77
2022/12/04 11:56:24;;;;;;;;;;;;;;;20.12;27.93;99105.28;5015884;28;959;-76
2022/12/04 11:58:50;;;;;;;;;;;;;;;20.26;28.01;99105.22;4999284;28;923;-77
2022/12/04 12:01:15;;;;;;;;;;;;;;;20.55;27.52;99091.00;5053749;28;1990;-76
2022/12/04 12:04:01;;;;;;;;;;;;;;;20.65;27.39;99094.97;5058058;28;905;-75
2022/12/04 12:06:31;;;;;;;;;;;;;;;20.80;27.13;99097.31;4956447;28;1505;-76
2022/12/04 12:09:00;;;;;;;;;;;;;;;20.36;27.62;99097.09;4941210;29;916;-76
2022/12/04 12:11:30;;;;;;;;;;;;;;;20.14;27.98;99097.19;4941485;29;1016;-76
2022/12/04 12:14:05;;;;;;;;;;;;;;;20.53;27.71;99090.59;4941461;29;928;-76
2022/12/04 12:16:51;;;;;;;;;;;;;;;20.53;27.53;99084.94;4941476;29;941;-76
2022/12/04 12:19:16;;;;;;;;;;;;;;;20.61;27.65;99086.50;4956599;28;931;-76
2022/12/04 12:21:47;;;;;;;;;;;;;;;20.61;27.78;99095.00;4962549;28;1907;-76
2022/12/04 12:24:28;;;;;;;;;;;;;;;20.86;27.11;99094.06;4960118;28;942;-76
2022/12/04 12:27:12;;;;;;;;;;;;;;;20.52;27.62;99086.97;4959890;28;910;-76
2022/12/04 12:29:37;;;;;;;;;;;;;;;;;;4959921;28;941;-76
2022/12/04 12:32:03;;;;;;;;;;;;;;;20.22;28.20;99093.13;4937272;29;1164;-76
2022/12/04 12:34:34;;;;;;;;;;;;;;;20.60;27.45;99093.38;4937552;29;1013;-76
2022/12/04 12:37:02;;;;;;;;;;;;;;;20.68;27.62;99089.31;4936033;29;2022;-76
2022/12/04 12:39:48;;;;;;;;;;;;;;;20.65;27.66;99087.31;4937809;29;962;-76
2022/12/04 12:42:24;;;;;;;;;;;;;;;20.45;27.51;99094.63;4918063;29;948;-76
2022/12/04 12:44:53;;;;;;;;;;;;;;;20.47;27.65;99092.25;4940615;29;1017;-75
2022/12/04 12:47:20;;;;;;;;;;;;;;;20.06;28.29;99089.97;4956115;29;948;-77
2022/12/04 12:49:57;;;;;;;;;;;;;;;20.48;27.73;99088.22;4940356;29;960;-76
2022/12/04 12:52:38;;;;;;;;;;;;;;;20.81;27.58;99093.25;4935843;29;1452;-76
2022/12/04 12:55:17;;;;;;;;;;;;;;;20.66;27.39;99088.91;4921318;29;876;-76
2022/12/04 12:57:46;;;;;;;;;;;;;;;20.41;27.54;99082.53;4937252;29;931;-76
2022/12/04 13:00:13;;;;;;;;;;;;;;;20.18;28.24;99086.69;4921035;29;1907;-76
2022/12/04 13:02:43;;;;;;;;;;;;;;;19.80;28.80;99082.75;4933591;28;971;-76
2022/12/04 13:05:12;;;;;;;;;;;;;;;20.28;28.39;99079.38;4942013;28;1653;-76
2022/12/04 13:07:43;;;;;;;;;;;;;;;20.48;27.83;99082.56;4955396;28;1025;-76
2022/12/04 13:10:13;;;;;;;;;;;;;;;20.61;27.64;99085.72;4955871;29;907;-76
2022/12/04 13:12:45;;;;;;;;;;;;;;;20.63;27.84;99089.75;4917625;29;1017;-76
2022/12/04 13:15:12;;;;;;;;;;;;;;;20.40;27.74;99078.09;4917760;29;954;-76
2022/12/04 13:17:37;;;;;;;;;;;;;;;20.02;28.43;99089.16;4901676;29;1047;-76
2022/12/04 13:20:04;;;;;;;;;;;;;;;20.57;27.93;99080.06;4896189;29;1907;-76